sensor_id;sensor_type;location;lat;lon;timestamp;pressure;altitude;pressure_sealevel;temperature;humidity
51617;BME280;37697;52.588;13.394;2024-03-02T00:04:22;100107.58;;;5.27;100.00
51617;BME280;37697;52.588;13.394;2024-03-02T00:09:48;100105.45;;;5.28;100.00
51617;BME280;37697;52.588;13.394;2024-03-02T00:15:40;100105.34;;;5.30;100.00
51617;BME280;37697;52.588;13.394;2024-03-02T00:21:09;100102.00;;;5.30;100.00
51617;BME280;37697;52.588;13.394;2024-03-02T00:26:35;100098.46;;;5.29;100.00
51617;BME280;37697;52.588;13.394;2024-03-02T00:32:02;100095.02;;;5.28;100.00
51617;BME280;37697;52.588;13.394;2024-03-02T00:37:27;100087.83;;;5.27;100.00
51617;BME280;37697;52.588;13.394;2024-03-02T00:42:54;100084.09;;;5.29;100.00
51617;BME280;37697;52.588;13.394;2024-03-02T00:48:21;100086.25;;;5.33;100.00
51617;BME280;37697;52.588;13.394;2024-03-02T00:53:47;100081.16;;;5.36;100.00
51617;BME280;37697;52.588;13.394;2024-03-02T00:59:13;100084.14;;;5.39;100.00
51617;BME280;37697;52.588;13.394;2024-03-02T01:04:38;100083.51;;;5.44;100.00
51617;BME280;37697;52.588;13.394;2024-03-02T01:10:05;100083.64;;;5.47;100.00
51617;BME280;37697;52.588;13.394;2024-03-02T01:15:31;100082.46;;;5.50;100.00
51617;BME280;37697;52.588;13.394;2024-03-02T01:20:57;100081.90;;;5.52;100.00
51617;BME280;37697;52.588;13.394;2024-03-02T01:26:23;100074.25;;;5.54;100.00
51617;BME280;37697;52.588;13.394;2024-03-02T01:31:48;100072.05;;;5.55;100.00
51617;BME280;37697;52.588;13.394;2024-03-02T01:37:14;100071.52;;;5.59;100.00
51617;BME280;37697;52.588;13.394;2024-03-02T01:42:40;100062.14;;;5.63;100.00
51617;BME280;37697;52.588;13.394;2024-03-02T01:48:08;100065.45;;;5.65;100.00
51617;BME280;37697;52.588;13.394;2024-03-02T01:53:36;100065.30;;;5.71;100.00
51617;BME280;37697;52.588;13.394;2024-03-02T01:59:03;100050.45;;;5.76;100.00
51617;BME280;37697;52.588;13.394;2024-03-02T02:04:42;100041.27;;;5.77;100.00
51617;BME280;37697;52.588;13.394;2024-03-02T02:10:08;100031.23;;;5.78;100.00
51617;BME280;37697;52.588;13.394;2024-03-02T02:15:34;100028.11;;;5.79;100.00
51617;BME280;37697;52.588;13.394;2024-03-02T02:21:12;100022.74;;;5.80;100.00
51617;BME280;37697;52.588;13.394;2024-03-02T02:26:38;100020.83;;;5.81;100.00
51617;BME280;37697;52.588;13.394;2024-03-02T02:32:04;100016.71;;;5.84;100.00
51617;BME280;37697;52.588;13.394;2024-03-02T02:37:29;100008.79;;;5.88;100.00
51617;BME280;37697;52.588;13.394;2024-03-02T02:42:55;100012.31;;;5.90;100.00
51617;BME280;37697;52.588;13.394;2024-03-02T02:48:21;100015.19;;;5.93;100.00
51617;BME280;37697;52.588;13.394;2024-03-02T02:53:47;100015.73;;;5.94;100.00
51617;BME280;37697;52.588;13.394;2024-03-02T02:59:12;100023.08;;;5.99;100.00
51617;BME280;37697;52.588;13.394;2024-03-02T03:04:41;100021.95;;;6.07;100.00
51617;BME280;37697;52.588;13.394;2024-03-02T03:10:08;100022.47;;;6.15;100.00
51617;BME280;37697;52.588;13.394;2024-03-02T03:15:34;100025.45;;;6.21;100.00
51617;BME280;37697;52.588;13.394;2024-03-02T03:20:53;100028.52;;;6.30;100.00
51617;BME280;37697;52.588;13.394;2024-03-02T03:26:19;100026.09;;;6.37;100.00
51617;BME280;37697;52.588;13.394;2024-03-02T03:31:44;100029.09;;;6.47;100.00
51617;BME280;37697;52.588;13.394;2024-03-02T03:37:10;100025.09;;;6.55;100.00
51617;BME280;37697;52.588;13.394;2024-03-02T03:42:36;100026.98;;;6.61;100.00
51617;BME280;37697;52.588;13.394;2024-03-02T03:48:00;100024.02;;;6.68;100.00
51617;BME280;37697;52.588;13.394;2024-03-02T03:53:49;100024.04;;;6.72;100.00
51617;BME280;37697;52.588;13.394;2024-03-02T03:59:16;100021.67;;;6.78;100.00
51617;BME280;37697;52.588;13.394;2024-03-02T04:04:42;100023.40;;;6.84;100.00
51617;BME280;37697;52.588;13.394;2024-03-02T04:10:22;100026.91;;;6.91;100.00
51617;BME280;37697;52.588;13.394;2024-03-02T04:16:02;100031.69;;;6.97;100.00
51617;BME280;37697;52.588;13.394;2024-03-02T04:21:46;100031.87;;;7.02;100.00
51617;BME280;37697;52.588;13.394;2024-03-02T04:27:25;100039.40;;;7.09;100.00
51617;BME280;37697;52.588;13.394;2024-03-02T04:32:51;100038.67;;;7.16;100.00
51617;BME280;37697;52.588;13.394;2024-03-02T04:38:09;100042.23;;;7.24;100.00
51617;BME280;37697;52.588;13.394;2024-03-02T04:43:35;100039.49;;;7.27;100.00
51617;BME280;37697;52.588;13.394;2024-03-02T04:49:01;100040.59;;;7.31;100.00
51617;BME280;37697;52.588;13.394;2024-03-02T04:54:26;100044.67;;;7.36;100.00
51617;BME280;37697;52.588;13.394;2024-03-02T04:59:53;100051.86;;;7.42;100.00
51617;BME280;37697;52.588;13.394;2024-03-02T05:05:39;100057.85;;;7.48;100.00
51617;BME280;37697;52.588;13.394;2024-03-02T05:11:09;100064.39;;;7.53;100.00
51617;BME280;37697;52.588;13.394;2024-03-02T05:16:35;100063.84;;;7.57;100.00
51617;BME280;37697;52.588;13.394;2024-03-02T05:22:14;100067.28;;;7.61;100.00
51617;BME280;37697;52.588;13.394;2024-03-02T05:27:40;100071.30;;;7.64;100.00
51617;BME280;37697;52.588;13.394;2024-03-02T05:32:58;100082.31;;;7.68;100.00
51617;BME280;37697;52.588;13.394;2024-03-02T05:38:43;100088.52;;;7.69;100.00
51617;BME280;37697;52.588;13.394;2024-03-02T05:44:21;100096.65;;;7.72;100.00
51617;BME280;37697;52.588;13.394;2024-03-02T05:49:48;100102.20;;;7.73;100.00
51617;BME280;37697;52.588;13.394;2024-03-02T05:55:14;100106.74;;;7.74;100.00
51617;BME280;37697;52.588;13.394;2024-03-02T06:00:55;100108.98;;;7.75;100.00
51617;BME280;37697;52.588;13.394;2024-03-02T06:06:33;100118.48;;;7.75;100.00
51617;BME280;37697;52.588;13.394;2024-03-02T06:12:19;100121.10;;;7.75;100.00
51617;BME280;37697;52.588;13.394;2024-03-02T06:17:58;100123.76;;;7.73;100.00
51617;BME280;37697;52.588;13.394;2024-03-02T06:23:26;100119.94;;;7.72;100.00
51617;BME280;37697;52.588;13.394;2024-03-02T06:28:52;100127.22;;;7.72;100.00
51617;BME280;37697;52.588;13.394;2024-03-02T06:34:36;100123.77;;;7.72;100.00
51617;BME280;37697;52.588;13.394;2024-03-02T06:40:14;100118.00;;;7.73;100.00
51617;BME280;37697;52.588;13.394;2024-03-02T06:46:03;100113.30;;;7.76;100.00
51617;BME280;37697;52.588;13.394;2024-03-02T06:51:41;100114.56;;;7.79;100.00
51617;BME280;37697;52.588;13.394;2024-03-02T06:57:30;100124.16;;;7.82;100.00
51617;BME280;37697;52.588;13.394;2024-03-02T07:02:57;100130.55;;;7.87;100.00
51617;BME280;37697;52.588;13.394;2024-03-02T07:08:36;100131.49;;;7.93;100.00
51617;BME280;37697;52.588;13.394;2024-03-02T07:14:03;100141.84;;;7.96;100.00
51617;BME280;37697;52.588;13.394;2024-03-02T07:19:30;100149.16;;;7.98;100.00
51617;BME280;37697;52.588;13.394;2024-03-02T07:24:56;100149.52;;;8.01;100.00
51617;BME280;37697;52.588;13.394;2024-03-02T07:30:25;100149.04;;;8.03;100.00
51617;BME280;37697;52.588;13.394;2024-03-02T07:36:15;100151.06;;;8.09;100.00
51617;BME280;37697;52.588;13.394;2024-03-02T07:41:53;100167.54;;;8.15;100.00
51617;BME280;37697;52.588;13.394;2024-03-02T07:47:19;100176.41;;;8.18;100.00
51617;BME280;37697;52.588;13.394;2024-03-02T07:52:45;100184.78;;;8.20;100.00
51617;BME280;37697;52.588;13.394;2024-03-02T07:58:10;100196.72;;;8.21;100.00
51617;BME280;37697;52.588;13.394;2024-03-02T08:03:36;100203.31;;;8.21;100.00
51617;BME280;37697;52.588;13.394;2024-03-02T08:09:21;100213.84;;;8.25;100.00
51617;BME280;37697;52.588;13.394;2024-03-02T08:14:59;100206.52;;;8.29;100.00
51617;BME280;37697;52.588;13.394;2024-03-02T08:20:37;100209.57;;;8.34;100.00
51617;BME280;37697;52.588;13.394;2024-03-02T08:26:03;100211.09;;;8.41;100.00
51617;BME280;37697;52.588;13.394;2024-03-02T08:31:09;100213.71;;;8.46;100.00
51617;BME280;37697;52.588;13.394;2024-03-02T08:36:57;100220.89;;;8.53;100.00
51617;BME280;37697;52.588;13.394;2024-03-02T08:42:34;100225.50;;;8.56;100.00
51617;BME280;37697;52.588;13.394;2024-03-02T08:48:00;100230.42;;;8.55;100.00
51617;BME280;37697;52.588;13.394;2024-03-02T08:53:38;100230.98;;;8.50;100.00
51617;BME280;37697;52.588;13.394;2024-03-02T08:59:16;100238.31;;;8.46;100.00
51617;BME280;37697;52.588;13.394;2024-03-02T09:04:35;100239.85;;;8.46;100.00
51617;BME280;37697;52.588;13.394;2024-03-02T09:10:13;100239.33;;;8.47;100.00
51617;BME280;37697;52.588;13.394;2024-03-02T09:15:50;100249.02;;;8.49;100.00
51617;BME280;37697;52.588;13.394;2024-03-02T09:21:28;100252.02;;;8.46;100.00
51617;BME280;37697;52.588;13.394;2024-03-02T09:27:06;100256.50;;;8.45;100.00
51617;BME280;37697;52.588;13.394;2024-03-02T09:32:43;100259.36;;;8.47;100.00
51617;BME280;37697;52.588;13.394;2024-03-02T09:38:33;100260.23;;;8.51;100.00
51617;BME280;37697;52.588;13.394;2024-03-02T09:43:49;100256.89;;;8.63;100.00
51617;BME280;37697;52.588;13.394;2024-03-02T09:49:16;100258.09;;;8.79;100.00
51617;BME280;37697;52.588;13.394;2024-03-02T09:54:54;100253.02;;;9.00;100.00
51617;BME280;37697;52.588;13.394;2024-03-02T10:00:20;100248.50;;;9.28;100.00
51617;BME280;37697;52.588;13.394;2024-03-02T10:05:46;100248.48;;;9.55;100.00
51617;BME280;37697;52.588;13.394;2024-03-02T10:10:54;100243.41;;;9.83;100.00
51617;BME280;37697;52.588;13.394;2024-03-02T10:16:20;100250.62;;;10.13;100.00
51617;BME280;37697;52.588;13.394;2024-03-02T10:21:46;100255.92;;;10.44;100.00
51617;BME280;37697;52.588;13.394;2024-03-02T10:27:16;100255.98;;;10.52;100.00
51617;BME280;37697;52.588;13.394;2024-03-02T10:32:40;100250.66;;;10.64;100.00
51617;BME280;37697;52.588;13.394;2024-03-02T10:38:06;100248.94;;;10.75;100.00
51617;BME280;37697;52.588;13.394;2024-03-02T10:43:26;100245.62;;;10.86;100.00
51617;BME280;37697;52.588;13.394;2024-03-02T10:48:52;100243.88;;;10.95;100.00
51617;BME280;37697;52.588;13.394;2024-03-02T10:54:18;100246.91;;;10.99;100.00
51617;BME280;37697;52.588;13.394;2024-03-02T10:59:51;100245.92;;;11.05;100.00
51617;BME280;37697;52.588;13.394;2024-03-02T11:05:11;100236.41;;;11.18;100.00
51617;BME280;37697;52.588;13.394;2024-03-02T11:10:41;100244.92;;;11.51;100.00
51617;BME280;37697;52.588;13.394;2024-03-02T11:16:02;100243.16;;;11.62;99.95
51617;BME280;37697;52.588;13.394;2024-03-02T11:21:22;100243.84;;;11.65;100.00
51617;BME280;37697;52.588;13.394;2024-03-02T11:26:48;100247.40;;;11.67;100.00
51617;BME280;37697;52.588;13.394;2024-03-02T11:32:19;100244.10;;;11.64;99.71
51617;BME280;37697;52.588;13.394;2024-03-02T11:37:45;100242.67;;;11.64;99.89
51617;BME280;37697;52.588;13.394;2024-03-02T11:43:12;100247.02;;;11.64;99.50
51617;BME280;37697;52.588;13.394;2024-03-02T11:48:38;100244.43;;;11.63;99.44
51617;BME280;37697;52.588;13.394;2024-03-02T11:54:05;100241.02;;;11.72;98.70
51617;BME280;37697;52.588;13.394;2024-03-02T11:59:25;100241.77;;;11.79;97.17
51617;BME280;37697;52.588;13.394;2024-03-02T12:04:52;100247.92;;;11.85;97.40
51617;BME280;37697;52.588;13.394;2024-03-02T12:10:18;100250.02;;;11.96;95.83
51617;BME280;37697;52.588;13.394;2024-03-02T12:15:44;100247.39;;;12.05;93.72
51617;BME280;37697;52.588;13.394;2024-03-02T12:21:09;100245.48;;;12.09;93.69
51617;BME280;37697;52.588;13.394;2024-03-02T12:26:35;100237.23;;;12.22;93.14
51617;BME280;37697;52.588;13.394;2024-03-02T12:32:01;100232.45;;;12.39;93.21
51617;BME280;37697;52.588;13.394;2024-03-02T12:37:20;100225.88;;;12.70;92.71
51617;BME280;37697;52.588;13.394;2024-03-02T12:42:40;100223.64;;;13.02;92.60
51617;BME280;37697;52.588;13.394;2024-03-02T12:48:06;100222.24;;;13.36;90.88
51617;BME280;37697;52.588;13.394;2024-03-02T12:53:32;100222.09;;;13.54;90.03
51617;BME280;37697;52.588;13.394;2024-03-02T12:58:58;100218.58;;;13.57;88.66
51617;BME280;37697;52.588;13.394;2024-03-02T13:04:25;100221.04;;;13.63;87.83
51617;BME280;37697;52.588;13.394;2024-03-02T13:09:51;100214.42;;;13.85;83.28
51617;BME280;37697;52.588;13.394;2024-03-02T13:15:17;100208.79;;;14.15;83.46
51617;BME280;37697;52.588;13.394;2024-03-02T13:20:52;100203.64;;;14.33;82.44
51617;BME280;37697;52.588;13.394;2024-03-02T13:26:18;100205.42;;;14.52;80.14
51617;BME280;37697;52.588;13.394;2024-03-02T13:31:43;100200.76;;;14.60;81.86
51617;BME280;37697;52.588;13.394;2024-03-02T13:37:09;100201.75;;;14.62;81.29
51617;BME280;37697;52.588;13.394;2024-03-02T13:42:35;100192.63;;;14.54;77.84
51617;BME280;37697;52.588;13.394;2024-03-02T13:48:01;100198.45;;;14.31;78.24
51617;BME280;37697;52.588;13.394;2024-03-02T13:53:27;100199.75;;;14.13;77.60
51617;BME280;37697;52.588;13.394;2024-03-02T13:58:53;100194.98;;;14.00;78.08
51617;BME280;37697;52.588;13.394;2024-03-02T14:04:18;100194.63;;;13.99;76.11
51617;BME280;37697;52.588;13.394;2024-03-02T14:09:44;100200.93;;;14.06;76.34
51617;BME280;37697;52.588;13.394;2024-03-02T14:15:11;100197.60;;;13.99;76.89
51617;BME280;37697;52.588;13.394;2024-03-02T14:20:36;100198.16;;;13.88;77.50
51617;BME280;37697;52.588;13.394;2024-03-02T14:26:02;100198.35;;;13.80;78.11
51617;BME280;37697;52.588;13.394;2024-03-02T14:31:28;100201.14;;;13.79;76.99
51617;BME280;37697;52.588;13.394;2024-03-02T14:36:54;100196.44;;;13.76;76.64
51617;BME280;37697;52.588;13.394;2024-03-02T14:42:20;100197.55;;;13.70;76.55
51617;BME280;37697;52.588;13.394;2024-03-02T14:47:46;100195.34;;;13.61;76.45
51617;BME280;37697;52.588;13.394;2024-03-02T14:53:12;100199.67;;;13.51;75.02
51617;BME280;37697;52.588;13.394;2024-03-02T14:58:37;100197.74;;;13.38;75.62
51617;BME280;37697;52.588;13.394;2024-03-02T15:04:03;100193.70;;;13.25;76.19
51617;BME280;37697;52.588;13.394;2024-03-02T15:09:29;100192.58;;;13.15;75.31
51617;BME280;37697;52.588;13.394;2024-03-02T15:14:55;100191.95;;;13.05;75.82
51617;BME280;37697;52.588;13.394;2024-03-02T15:20:20;100190.55;;;13.00;75.95
51617;BME280;37697;52.588;13.394;2024-03-02T15:25:46;100191.03;;;12.94;75.87
51617;BME280;37697;52.588;13.394;2024-03-02T15:31:13;100193.20;;;12.89;76.52
51617;BME280;37697;52.588;13.394;2024-03-02T15:36:38;100192.73;;;12.85;77.01
51617;BME280;37697;52.588;13.394;2024-03-02T15:42:05;100185.33;;;12.82;76.75
51617;BME280;37697;52.588;13.394;2024-03-02T15:47:31;100179.14;;;12.79;77.23
51617;BME280;37697;52.588;13.394;2024-03-02T15:52:57;100179.50;;;12.77;77.47
51617;BME280;37697;52.588;13.394;2024-03-02T15:58:22;100187.11;;;12.68;78.15
51617;BME280;37697;52.588;13.394;2024-03-02T16:03:48;100189.81;;;12.56;78.97
51617;BME280;37697;52.588;13.394;2024-03-02T16:09:14;100198.38;;;12.43;78.97
51617;BME280;37697;52.588;13.394;2024-03-02T16:14:39;100196.27;;;12.24;78.85
51617;BME280;37697;52.588;13.394;2024-03-02T16:20:07;100203.50;;;12.08;79.52
51617;BME280;37697;52.588;13.394;2024-03-02T16:25:33;100206.99;;;11.94;80.04
51617;BME280;37697;52.588;13.394;2024-03-02T16:30:59;100207.09;;;11.76;80.68
51617;BME280;37697;52.588;13.394;2024-03-02T16:36:24;100209.99;;;11.63;81.29
51617;BME280;37697;52.588;13.394;2024-03-02T16:41:43;100212.52;;;11.49;81.75
51617;BME280;37697;52.588;13.394;2024-03-02T16:47:02;100210.67;;;11.35;82.22
51617;BME280;37697;52.588;13.394;2024-03-02T16:52:28;100213.98;;;11.23;82.77
51617;BME280;37697;52.588;13.394;2024-03-02T16:57:43;100215.33;;;11.13;83.27
51617;BME280;37697;52.588;13.394;2024-03-02T17:03:02;100218.94;;;11.04;83.65
51617;BME280;37697;52.588;13.394;2024-03-02T17:08:29;100212.38;;;10.96;84.13
51617;BME280;37697;52.588;13.394;2024-03-02T17:13:54;100216.04;;;10.89;84.34
51617;BME280;37697;52.588;13.394;2024-03-02T17:19:13;100227.67;;;10.81;84.70
51617;BME280;37697;52.588;13.394;2024-03-02T17:24:39;100236.98;;;10.72;85.01
51617;BME280;37697;52.588;13.394;2024-03-02T17:30:06;100246.58;;;10.64;85.19
51617;BME280;37697;52.588;13.394;2024-03-02T17:35:32;100248.44;;;10.54;85.68
51617;BME280;37697;52.588;13.394;2024-03-02T17:40:58;100249.16;;;10.47;86.12
51617;BME280;37697;52.588;13.394;2024-03-02T17:46:24;100253.05;;;10.40;86.53
51617;BME280;37697;52.588;13.394;2024-03-02T17:51:50;100254.70;;;10.35;86.67
51617;BME280;37697;52.588;13.394;2024-03-02T17:57:16;100253.42;;;10.20;86.84
51617;BME280;37697;52.588;13.394;2024-03-02T18:02:41;100260.61;;;10.08;87.11
51617;BME280;37697;52.588;13.394;2024-03-02T18:08:08;100267.00;;;9.98;87.40
51617;BME280;37697;52.588;13.394;2024-03-02T18:13:26;100272.09;;;9.92;87.91
51617;BME280;37697;52.588;13.394;2024-03-02T18:18:52;100270.77;;;9.84;87.96
51617;BME280;37697;52.588;13.394;2024-03-02T18:24:18;100267.39;;;9.76;88.10
51617;BME280;37697;52.588;13.394;2024-03-02T18:29:43;100269.73;;;9.65;88.31
51617;BME280;37697;52.588;13.394;2024-03-02T18:35:09;100266.21;;;9.52;88.33
51617;BME280;37697;52.588;13.394;2024-03-02T18:40:35;100261.55;;;9.35;88.56
51617;BME280;37697;52.588;13.394;2024-03-02T18:46:01;100271.45;;;9.21;88.83
51617;BME280;37697;52.588;13.394;2024-03-02T18:51:27;100270.15;;;9.07;89.16
51617;BME280;37697;52.588;13.394;2024-03-02T18:56:52;100268.53;;;8.94;89.43
51617;BME280;37697;52.588;13.394;2024-03-02T19:02:18;100262.80;;;8.80;89.90
51617;BME280;37697;52.588;13.394;2024-03-02T19:07:44;100259.27;;;8.68;90.47
51617;BME280;37697;52.588;13.394;2024-03-02T19:13:09;100259.71;;;8.62;90.75
51617;BME280;37697;52.588;13.394;2024-03-02T19:18:35;100259.84;;;8.58;91.68
51617;BME280;37697;52.588;13.394;2024-03-02T19:24:01;100259.13;;;8.58;91.93
51617;BME280;37697;52.588;13.394;2024-03-02T19:29:26;100253.13;;;8.59;92.15
51617;BME280;37697;52.588;13.394;2024-03-02T19:34:52;100247.41;;;8.59;92.32
51617;BME280;37697;52.588;13.394;2024-03-02T19:40:18;100241.80;;;8.57;92.58
51617;BME280;37697;52.588;13.394;2024-03-02T19:45:43;100239.73;;;8.56;92.45
51617;BME280;37697;52.588;13.394;2024-03-02T19:51:09;100237.64;;;8.52;92.50
51617;BME280;37697;52.588;13.394;2024-03-02T19:56:28;100239.66;;;8.40;92.47
51617;BME280;37697;52.588;13.394;2024-03-02T20:01:54;100233.18;;;8.23;92.66
51617;BME280;37697;52.588;13.394;2024-03-02T20:07:22;100228.86;;;8.12;93.20
51617;BME280;37697;52.588;13.394;2024-03-02T20:12:48;100225.16;;;8.03;93.28
51617;BME280;37697;52.588;13.394;2024-03-02T20:18:14;100221.73;;;7.98;93.59
51617;BME280;37697;52.588;13.394;2024-03-02T20:23:40;100220.30;;;7.92;93.35
51617;BME280;37697;52.588;13.394;2024-03-02T20:29:05;100219.98;;;7.87;93.84
51617;BME280;37697;52.588;13.394;2024-03-02T20:34:31;100218.70;;;7.84;94.42
51617;BME280;37697;52.588;13.394;2024-03-02T20:39:57;100214.17;;;7.84;95.47
51617;BME280;37697;52.588;13.394;2024-03-02T20:45:23;100210.05;;;7.86;96.55
51617;BME280;37697;52.588;13.394;2024-03-02T20:50:49;100211.70;;;7.91;97.73
51617;BME280;37697;52.588;13.394;2024-03-02T20:56:14;100212.05;;;7.95;98.23
51617;BME280;37697;52.588;13.394;2024-03-02T21:01:40;100211.20;;;7.98;98.74
51617;BME280;37697;52.588;13.394;2024-03-02T21:07:06;100208.38;;;8.00;99.00
51617;BME280;37697;52.588;13.394;2024-03-02T21:12:32;100201.88;;;8.01;99.52
51617;BME280;37697;52.588;13.394;2024-03-02T21:17:50;100204.18;;;8.02;99.72
51617;BME280;37697;52.588;13.394;2024-03-02T21:23:16;100209.06;;;8.02;99.94
51617;BME280;37697;52.588;13.394;2024-03-02T21:28:41;100210.93;;;8.01;99.92
51617;BME280;37697;52.588;13.394;2024-03-02T21:34:06;100210.90;;;8.00;100.00
51617;BME280;37697;52.588;13.394;2024-03-02T21:39:32;100210.47;;;7.99;100.00
51617;BME280;37697;52.588;13.394;2024-03-02T21:44:58;100203.15;;;8.00;100.00
51617;BME280;37697;52.588;13.394;2024-03-02T21:50:24;100198.41;;;8.01;100.00
51617;BME280;37697;52.588;13.394;2024-03-02T21:55:49;100202.83;;;8.00;100.00
51617;BME280;37697;52.588;13.394;2024-03-02T22:01:08;100199.81;;;7.96;100.00
51617;BME280;37697;52.588;13.394;2024-03-02T22:06:33;100194.95;;;7.92;100.00
51617;BME280;37697;52.588;13.394;2024-03-02T22:11:59;100193.87;;;7.88;100.00
51617;BME280;37697;52.588;13.394;2024-03-02T22:17:25;100195.02;;;7.85;100.00
51617;BME280;37697;52.588;13.394;2024-03-02T22:22:51;100189.39;;;7.80;100.00
51617;BME280;37697;52.588;13.394;2024-03-02T22:28:17;100184.28;;;7.77;100.00
51617;BME280;37697;52.588;13.394;2024-03-02T22:33:42;100184.91;;;7.75;100.00
51617;BME280;37697;52.588;13.394;2024-03-02T22:39:08;100179.05;;;7.75;100.00
51617;BME280;37697;52.588;13.394;2024-03-02T22:44:32;100173.95;;;7.74;100.00
51617;BME280;37697;52.588;13.394;2024-03-02T22:49:58;100171.30;;;7.72;100.00
51617;BME280;37697;52.588;13.394;2024-03-02T22:55:17;100166.81;;;7.69;100.00
51617;BME280;37697;52.588;13.394;2024-03-02T23:00:42;100167.35;;;7.66;100.00
51617;BME280;37697;52.588;13.394;2024-03-02T23:06:14;100165.64;;;7.63;100.00
51617;BME280;37697;52.588;13.394;2024-03-02T23:11:40;100164.04;;;7.59;100.00
51617;BME280;37697;52.588;13.394;2024-03-02T23:16:58;100160.14;;;7.59;100.00
51617;BME280;37697;52.588;13.394;2024-03-02T23:22:24;100154.16;;;7.65;100.00
51617;BME280;37697;52.588;13.394;2024-03-02T23:27:50;100151.11;;;7.70;100.00
51617;BME280;37697;52.588;13.394;2024-03-02T23:33:16;100149.70;;;7.76;100.00
51617;BME280;37697;52.588;13.394;2024-03-02T23:38:41;100146.52;;;7.82;100.00
51617;BME280;37697;52.588;13.394;2024-03-02T23:43:59;100144.83;;;7.85;100.00
51617;BME280;37697;52.588;13.394;2024-03-02T23:49:19;100145.33;;;7.86;100.00
51617;BME280;37697;52.588;13.394;2024-03-02T23:54:43;100148.20;;;7.88;100.00
